Time;durP1;ratioP1;P1;durP2;ratioP2;P2;SDS_P1;SDS_P2;PMS_P1;PMS_P2;Temp;Humidity;BMP_temperature;BMP_pressure;BME280_temperature;BME280_humidity;BME280_pressure;Samples;Min_cycle;Max_cycle;Signal;HPM_P1;HPM_P2
2023/04/30 00:00:44;;;;;;;2.90;1.92;;;18.50;63.60;;;;;;5039029;28;45345;-71
2023/04/30 00:03:10;;;;;;;2.38;1.73;;;18.50;63.60;;;;;;5031233;28;45439;-70
2023/04/30 00:05:37;;;;;;;2.95;2.03;;;18.50;64.00;;;;;;5038659;28;46609;-70
2023/04/30 00:08:05;;;;;;;4.07;1.77;;;18.50;64.10;;;;;;5039131;28;45525;-71
2023/04/30 00:10:32;;;;;;;3.60;1.88;;;18.50;64.00;;;;;;5039306;27;45414;-70
2023/04/30 00:12:59;;;;;;;3.40;1.77;;;18.50;64.40;;;;;;5037639;28;45442;-71
2023/04/30 00:15:26;;;;;;;2.03;1.48;;;18.50;63.80;;;;;;5039625;27;45254;-70
2023/04/30 00:17:52;;;;;;;2.95;1.73;;;18.50;64.00;;;;;;5041867;28;45318;-71
2023/04/30 00:20:19;;;;;;;2.65;1.73;;;18.50;64.00;;;;;;5041667;28;45373;-71
2023/04/30 00:22:46;;;;;;;4.22;1.77;;;18.50;63.70;;;;;;5041876;27;45316;-70
2023/04/30 00:25:15;;;;;;;3.15;1.60;;;18.50;63.50;;;;;;5041006;28;47790;-71
2023/04/30 00:27:42;;;;;;;4.47;1.73;;;18.50;63.30;;;;;;5038333;28;45329;-70
2023/04/30 00:30:09;;;;;;;2.88;1.65;;;18.50;63.10;;;;;;5042240;28;45205;-71
2023/04/30 00:32:36;;;;;;;3.50;2.05;;;18.50;62.90;;;;;;5041953;28;45259;-71
2023/04/30 00:35:02;;;;;;;2.28;1.73;;;18.50;62.80;;;;;;5040983;28;46452;-70
2023/04/30 00:37:29;;;;;;;3.53;2.00;;;18.40;62.70;;;;;;5036360;28;45350;-71
2023/04/30 00:39:56;;;;;;;2.80;1.83;;;18.50;62.80;;;;;;5041886;28;45250;-71
2023/04/30 00:42:24;;;;;;;2.80;1.85;;;18.50;62.70;;;;;;5041639;28;45383;-70
2023/04/30 00:44:51;;;;;;;4.78;1.90;;;18.50;62.40;;;;;;5036138;28;47081;-70
2023/04/30 00:47:18;;;;;;;2.90;2.13;;;18.50;62.60;;;;;;5040386;28;45321;-70
2023/04/30 00:49:45;;;;;;;2.83;1.77;;;18.50;62.90;;;;;;5041587;28;45526;-70
2023/04/30 00:52:12;;;;;;;3.25;2.00;;;18.50;62.90;;;;;;5033547;28;45350;-70
2023/04/30 00:54:40;;;;;;;2.65;1.63;;;18.50;63.20;;;;;;5036250;28;47944;-70
2023/04/30 00:57:09;;;;;;;2.17;1.50;;;18.50;63.10;;;;;;5040952;28;45359;-70
2023/04/30 00:59:38;;;;;;;2.85;1.80;;;18.50;63.30;;;;;;5041598;28;45345;-71
2023/04/30 01:02:05;;;;;;;4.97;1.85;;;18.50;63.30;;;;;;5046062;28;45299;-70
2023/04/30 01:04:32;;;;;;;3.63;2.25;;;18.50;63.20;;;;;;5040868;28;47105;-70
2023/04/30 01:07:00;;;;;;;1.70;1.60;;;18.50;63.10;;;;;;5040902;28;45549;-70
2023/04/30 01:09:28;;;;;;;2.05;1.60;;;18.50;62.60;;;;;;5041872;27;45356;-70
2023/04/30 01:12:04;;;;;;;2.78;1.70;;;18.50;62.60;;;;;;5041280;28;45346;-72
2023/04/30 01:14:38;;;;;;;3.65;1.58;;;18.50;62.60;;;;;;5041369;28;46964;-71
2023/04/30 01:17:15;;;;;;;2.22;1.48;;;18.50;62.50;;;;;;5041529;28;45397;-70
2023/04/30 01:19:44;;;;;;;3.20;1.70;;;18.50;62.40;;;;;;5037481;28;45352;-70
2023/04/30 01:22:23;;;;;;;3.03;1.90;;;18.50;62.30;;;;;;5041087;28;45301;-70
2023/04/30 01:25:07;;;;;;;3.35;1.80;;;18.40;62.10;;;;;;5040414;28;47078;-70
2023/04/30 01:28:02;;;;;;;3.90;1.80;;;18.50;62.20;;;;;;5040596;28;45261;-70
2023/04/30 01:30:31;;;;;;;2.88;1.70;;;18.50;62.10;;;;;;5032450;28;45262;-71
2023/04/30 01:32:57;;;;;;;3.30;2.13;;;18.50;62.40;;;;;;5041284;28;45443;-71
2023/04/30 01:35:49;;;;;;;2.90;1.70;;;18.50;62.50;;;;;;5038988;28;47247;-70
2023/04/30 01:38:39;;;;;;;2.42;1.55;;;18.50;62.60;;;;;;5039192;27;45499;-71
2023/04/30 01:41:14;;;;;;;2.83;1.80;;;18.50;62.70;;;;;;5040769;27;45287;-70
2023/04/30 01:43:50;;;;;;;2.85;1.80;;;18.50;62.80;;;;;;5040934;28;45197;-70
2023/04/30 01:46:24;;;;;;;2.90;1.65;;;18.50;62.80;;;;;;5031862;28;46388;-71
2023/04/30 01:48:57;;;;;;;1.77;1.48;;;18.50;63.80;;;;;;5040829;27;45302;-71
2023/04/30 01:51:30;;;;;;;3.03;1.55;;;18.50;63.70;;;;;;5040929;28;45315;-71
2023/04/30 01:54:02;;;;;;;2.63;1.83;;;18.50;62.20;;;;;;5037114;28;45332;-70
2023/04/30 01:56:37;;;;;;;3.33;1.75;;;18.50;62.10;;;;;;5040904;28;45259;-70
2023/04/30 01:59:06;;;;;;;2.40;1.75;;;18.40;61.90;;;;;;5041161;27;45395;-70
2023/04/30 02:01:33;;;;;;;3.15;1.92;;;18.50;62.90;;;;;;5032349;28;45394;-70
2023/04/30 02:04:00;;;;;;;3.40;2.00;;;18.40;61.70;;;;;;5040562;28;45234;-71
2023/04/30 02:06:28;;;;;;;2.58;1.60;;;18.50;61.70;;;;;;5040105;28;47495;-71
2023/04/30 02:09:01;;;;;;;2.42;1.70;;;18.40;61.40;;;;;;5040585;28;45471;-71
2023/04/30 02:11:27;;;;;;;2.83;1.52;;;18.40;61.20;;;;;;5033987;28;45288;-71
2023/04/30 02:13:54;;;;;;;2.78;1.88;;;18.40;61.30;;;;;;5040326;28;45282;-70
2023/04/30 02:16:22;;;;;;;3.80;1.58;;;18.40;61.70;;;;;;5040106;28;47313;-70
2023/04/30 02:18:49;;;;;;;3.47;1.90;;;18.40;61.90;;;;;;5040157;28;45722;-71
2023/04/30 02:21:16;;;;;;;3.40;1.95;;;18.40;61.90;;;;;;5040591;28;45288;-71
2023/04/30 02:23:43;;;;;;;1.60;1.33;;;18.40;62.10;;;;;;5040444;28;45413;-71
2023/04/30 02:26:10;;;;;;;2.28;1.90;;;18.40;62.20;;;;;;5040215;28;45502;-71
2023/04/30 02:28:37;;;;;;;2.22;1.40;;;18.50;62.20;;;;;;5036167;28;45625;-70
2023/04/30 02:31:04;;;;;;;3.42;1.70;;;18.40;62.20;;;;;;5040391;28;45420;-71
2023/04/30 02:33:32;;;;;;;2.15;1.60;;;18.40;62.10;;;;;;5040741;27;45741;-71
2023/04/30 02:36:00;;;;;;;3.80;2.28;;;18.40;61.90;;;;;;5039920;28;47361;-71
2023/04/30 02:38:26;;;;;;;3.33;1.88;;;18.40;61.50;;;;;;5039195;28;45255;-71
2023/04/30 02:40:53;;;;;;;2.28;1.80;;;18.40;61.40;;;;;;5040148;28;45385;-70
2023/04/30 02:43:20;;;;;;;2.35;1.77;;;18.40;61.70;;;;;;5039404;28;45563;-71
2023/04/30 02:45:47;;;;;;;2.75;1.75;;;18.40;61.70;;;;;;5038479;28;47504;-71
2023/04/30 02:48:14;;;;;;;2.90;1.80;;;18.40;61.90;;;;;;5038023;27;45414;-70
2023/04/30 02:50:42;;;;;;;2.60;1.75;;;18.30;61.60;;;;;;5040299;28;45296;-71
2023/04/30 02:53:08;;;;;;;3.17;1.80;;;18.30;61.60;;;;;;5035315;28;45535;-71
2023/04/30 02:55:35;;;;;;;2.08;1.77;;;18.30;61.50;;;;;;5039342;28;46608;-70
2023/04/30 02:58:02;;;;;;;2.15;1.85;;;18.30;61.60;;;;;;5040228;28;45381;-71
2023/04/30 03:00:29;;;;;;;3.30;1.98;;;18.30;61.80;;;;;;5034352;28;45404;-71
2023/04/30 03:02:55;;;;;;;2.05;1.50;;;18.30;61.90;;;;;;5038193;28;45405;-71
2023/04/30 03:05:24;;;;;;;2.90;1.73;;;18.30;62.00;;;;;;5038912;28;48050;-71
2023/04/30 03:07:52;;;;;;;3.45;1.80;;;18.30;62.00;;;;;;5039583;28;45905;-71
2023/04/30 03:10:18;;;;;;;2.58;1.90;;;18.30;62.10;;;;;;5040138;27;45361;-71
2023/04/30 03:12:45;;;;;;;2.97;1.90;;;18.40;62.10;;;;;;5039408;27;45670;-72
2023/04/30 03:15:12;;;;;;;3.97;2.20;;;18.40;62.10;;;;;;5039112;28;47531;-70
2023/04/30 03:17:39;;;;;;;2.33;1.77;;;18.40;62.10;;;;;;5036746;28;45465;-71
2023/04/30 03:20:07;;;;;;;3.08;1.88;;;18.30;61.90;;;;;;5039118;28;45334;-71
2023/04/30 03:22:34;;;;;;;2.92;1.77;;;18.30;61.90;;;;;;5039420;28;45441;-71
2023/04/30 03:25:02;;;;;;;2.25;1.70;;;18.30;61.90;;;;;;5038630;28;46590;-70
2023/04/30 03:27:28;;;;;;;2.22;1.92;;;18.30;61.70;;;;;;5039914;28;45404;-71
2023/04/30 03:29:55;;;;;;;2.15;1.80;;;18.30;61.50;;;;;;5039777;28;45304;-71
2023/04/30 03:32:22;;;;;;;2.28;1.60;;;18.30;61.40;;;;;;5039917;28;45200;-71
2023/04/30 03:34:49;;;;;;;2.35;1.80;;;18.30;61.30;;;;;;5034178;28;47990;-71
2023/04/30 03:37:16;;;;;;;2.55;1.52;;;18.30;61.50;;;;;;5039827;28;45334;-70
2023/04/30 03:39:43;;;;;;;2.78;1.67;;;18.30;61.30;;;;;;5039435;28;45432;-71
2023/04/30 03:42:11;;;;;;;2.50;1.85;;;18.30;61.00;;;;;;5039437;28;45489;-70
2023/04/30 03:44:37;;;;;;;2.85;1.40;;;18.30;61.40;;;;;;5038587;28;47025;-71
2023/04/30 03:47:04;;;;;;;2.63;1.70;;;18.40;61.80;;;;;;5037941;28;45494;-71
2023/04/30 03:49:31;;;;;;;2.58;1.90;;;18.30;61.70;;;;;;5039259;28;45319;-71
2023/04/30 03:51:58;;;;;;;3.10;1.80;;;18.30;61.60;;;;;;5034955;28;45430;-70
2023/04/30 03:54:25;;;;;;;3.05;1.90;;;18.30;61.60;;;;;;5034127;28;47495;-71
2023/04/30 03:56:52;;;;;;;2.55;1.67;;;18.30;61.70;;;;;;5038888;27;45305;-71
2023/04/30 03:59:20;;;;;;;3.67;2.25;;;18.30;61.50;;;;;;5039438;28;45300;-71
2023/04/30 04:01:47;;;;;;;2.88;2.10;;;18.30;61.40;;;;;;5030577;28;45488;-72
2023/04/30 04:04:14;;;;;;;2.45;1.65;;;18.30;61.50;;;;;;5038749;28;46384;-71
2023/04/30 04:06:41;;;;;;;3.25;1.98;;;18.30;61.40;;;;;;5038554;27;45382;-71
2023/04/30 04:09:08;;;;;;;3.47;1.65;;;18.30;61.00;;;;;;5038861;28;45374;-71
2023/04/30 04:11:35;;;;;;;2.92;2.10;;;18.30;61.00;;;;;;5039226;27;45305;-71
2023/04/30 04:14:01;;;;;;;3.60;2.30;;;18.30;60.80;;;;;;5037846;28;48174;-72
2023/04/30 04:16:29;;;;;;;3.17;1.92;;;18.30;60.70;;;;;;5035852;28;45444;-71
2023/04/30 04:18:56;;;;;;;3.10;2.13;;;18.30;60.30;;;;;;5028436;28;45328;-70
2023/04/30 04:21:23;;;;;;;2.78;1.80;;;18.30;60.30;;;;;;5038956;28;45411;-70
2023/04/30 04:23:50;;;;;;;2.83;2.00;;;18.30;60.20;;;;;;5038167;27;46399;-71
2023/04/30 04:26:18;;;;;;;2.78;1.88;;;18.30;60.00;;;;;;5034601;28;45339;-71
2023/04/30 04:28:45;;;;;;;3.25;2.10;;;18.30;60.20;;;;;;5038852;28;45507;-71
2023/04/30 04:31:12;;;;;;;4.68;1.60;;;18.30;60.70;;;;;;5039352;28;45244;-71
2023/04/30 04:33:40;;;;;;;3.80;2.30;;;18.30;60.90;;;;;;5038387;27;45407;-71
2023/04/30 04:36:07;;;;;;;2.38;1.90;;;18.30;61.00;;;;;;5038032;28;45397;-71
2023/04/30 04:38:34;;;;;;;3.13;2.03;;;18.30;60.90;;;;;;5033954;28;45342;-71
2023/04/30 04:41:01;;;;;;;3.40;1.95;;;18.30;61.00;;;;;;5038489;27;45310;-71
2023/04/30 04:43:27;;;;;;;2.33;1.80;;;18.30;61.00;;;;;;5037449;27;46305;-72
2023/04/30 04:45:54;;;;;;;3.13;2.05;;;18.30;61.00;;;;;;5036848;27;45317;-71
2023/04/30 04:48:21;;;;;;;2.63;2.00;;;18.30;60.80;;;;;;5038396;28;45329;-71
2023/04/30 04:50:49;;;;;;;7.95;1.65;;;18.30;60.90;;;;;;5037836;28;45612;-71
2023/04/30 04:53:16;;;;;;;1.67;1.48;;;18.30;60.70;;;;;;5038022;28;47291;-71
2023/04/30 04:55:42;;;;;;;2.65;1.90;;;18.30;60.70;;;;;;5037515;28;45257;-71
2023/04/30 04:58:09;;;;;;;4.00;2.03;;;18.30;60.60;;;;;;5038011;28;45212;-71
2023/04/30 05:00:36;;;;;;;2.90;1.85;;;18.30;60.50;;;;;;5036265;28;45611;-71
2023/04/30 05:03:03;;;;;;;2.38;1.77;;;18.30;60.40;;;;;;5041193;28;47845;-71
2023/04/30 05:05:30;;;;;;;3.08;2.00;;;18.30;60.50;;;;;;5040909;27;45396;-71
2023/04/30 05:07:58;;;;;;;4.40;1.95;;;18.30;60.50;;;;;;5041406;28;45571;-71
2023/04/30 05:10:25;;;;;;;2.30;1.92;;;18.30;60.40;;;;;;5041480;28;45493;-71
2023/04/30 05:12:52;;;;;;;2.00;1.52;;;18.30;60.40;;;;;;5040880;28;45693;-71
2023/04/30 05:15:18;;;;;;;3.17;1.90;;;18.30;60.80;;;;;;5040505;28;45334;-71
2023/04/30 05:17:45;;;;;;;1.95;1.70;;;18.30;60.70;;;;;;5029356;28;45362;-71
2023/04/30 05:20:13;;;;;;;2.33;1.70;;;18.30;60.70;;;;;;5033251;28;45217;-71
2023/04/30 05:22:39;;;;;;;2.00;1.67;;;18.30;60.70;;;;;;5041283;28;46593;-71
2023/04/30 05:25:09;;;;;;;2.97;2.05;;;18.40;61.00;;;;;;5040234;28;45302;-72
2023/04/30 05:27:36;;;;;;;2.00;1.50;;;18.40;60.80;;;;;;5041136;28;45310;-70
2023/04/30 05:30:03;;;;;;;3.00;1.80;;;18.30;60.80;;;;;;5041508;28;45268;-70
2023/04/30 05:32:30;;;;;;;3.22;2.03;;;18.30;60.80;;;;;;5040751;28;48753;-71
2023/04/30 05:34:57;;;;;;;3.42;2.03;;;18.30;60.40;;;;;;5036123;28;45502;-71
2023/04/30 05:37:23;;;;;;;2.75;1.80;;;18.30;60.30;;;;;;5035525;28;45398;-71
2023/04/30 05:39:52;;;;;;;3.05;2.10;;;18.30;60.10;;;;;;5041194;28;45452;-70
2023/04/30 05:42:20;;;;;;;3.30;2.00;;;18.30;60.10;;;;;;5040540;28;46760;-71
2023/04/30 05:44:48;;;;;;;2.70;1.90;;;18.30;60.00;;;;;;5039445;28;45366;-71
2023/04/30 05:47:15;;;;;;;2.80;1.70;;;18.30;59.90;;;;;;5039765;28;45335;-71
2023/04/30 05:49:41;;;;;;;2.92;2.28;;;18.30;59.90;;;;;;5040924;28;45426;-71
2023/04/30 05:52:10;;;;;;;2.15;1.92;;;18.30;59.90;;;;;;5031794;27;46352;-71
2023/04/30 05:54:36;;;;;;;2.80;2.08;;;18.30;59.90;;;;;;5040207;28;45414;-71
2023/04/30 05:57:03;;;;;;;2.15;1.80;;;18.30;60.00;;;;;;5040819;28;45343;-72
2023/04/30 05:59:31;;;;;;;2.92;1.73;;;18.30;60.30;;;;;;5041198;28;45562;-71
2023/04/30 06:01:58;;;;;;;2.47;1.70;;;18.30;60.50;;;;;;5032313;28;46627;-71
2023/04/30 06:04:25;;;;;;;2.53;1.65;;;18.30;60.50;;;;;;5040403;27;45293;-71
2023/04/30 06:06:51;;;;;;;2.97;1.90;;;18.40;60.60;;;;;;5040601;28;45284;-71
2023/04/30 06:09:18;;;;;;;2.70;1.73;;;18.40;60.60;;;;;;5036879;27;45468;-71
2023/04/30 06:11:49;;;;;;;3.38;1.70;;;18.40;60.60;;;;;;5040639;27;45496;-71
2023/04/30 06:14:16;;;;;;;3.08;1.70;;;18.40;60.60;;;;;;5035251;28;45400;-71
2023/04/30 06:16:44;;;;;;;2.58;1.63;;;18.40;60.50;;;;;;5040303;27;45506;-72
2023/04/30 06:19:11;;;;;;;2.10;1.70;;;18.40;61.50;;;;;;5040445;28;45430;-71
2023/04/30 06:21:38;;;;;;;1.98;1.77;;;18.40;60.40;;;;;;5040402;28;47278;-71
2023/04/30 06:24:05;;;;;;;4.05;2.38;;;18.40;60.40;;;;;;5039754;27;45260;-71
2023/04/30 06:26:32;;;;;;;2.60;1.88;;;18.40;60.50;;;;;;5035711;28;45325;-71
2023/04/30 06:28:59;;;;;;;3.03;1.83;;;18.40;60.40;;;;;;5040490;28;45309;-72
2023/04/30 06:31:26;;;;;;;2.35;1.70;;;18.40;60.30;;;;;;5040238;28;46705;-71
2023/04/30 06:33:54;;;;;;;2.35;1.80;;;18.40;60.30;;;;;;5040425;28;45498;-71
2023/04/30 06:36:21;;;;;;;3.70;2.00;;;18.40;60.30;;;;;;5040205;28;45325;-71
2023/04/30 06:38:48;;;;;;;2.70;2.15;;;18.40;60.30;;;;;;5040503;28;45595;-71
2023/04/30 06:41:15;;;;;;;2.08;1.75;;;18.40;60.30;;;;;;5039794;28;46348;-72
2023/04/30 06:43:43;;;;;;;3.78;1.67;;;18.40;60.50;;;;;;5036222;28;45313;-71
2023/04/30 06:46:09;;;;;;;2.13;1.85;;;18.40;60.70;;;;;;5038614;28;45192;-71
2023/04/30 06:48:36;;;;;;;2.97;1.98;;;18.40;60.70;;;;;;5039239;28;45451;-71
2023/04/30 06:51:04;;;;;;;2.58;1.70;;;18.40;60.70;;;;;;5035065;28;48264;-71
2023/04/30 06:53:31;;;;;;;2.55;1.88;;;18.40;60.70;;;;;;5039989;28;45957;-71
2023/04/30 06:55:58;;;;;;;2.97;2.20;;;18.40;60.70;;;;;;5039741;28;45417;-71
2023/04/30 06:58:25;;;;;;;2.95;2.00;;;18.50;60.80;;;;;;5039134;28;45584;-71
2023/04/30 07:00:51;;;;;;;2.53;1.88;;;18.50;60.80;;;;;;5028639;28;47756;-72
2023/04/30 07:03:18;;;;;;;2.90;1.85;;;18.40;60.80;;;;;;5039886;28;45576;-71
2023/04/30 07:05:45;;;;;;;2.67;1.90;;;18.40;60.70;;;;;;5039744;28;45295;-71
2023/04/30 07:08:13;;;;;;;2.28;1.80;;;18.40;60.70;;;;;;5031993;28;45248;-71
2023/04/30 07:10:40;;;;;;;6.85;2.00;;;18.40;60.70;;;;;;5039965;28;45432;-71
2023/04/30 07:13:08;;;;;;;2.65;2.00;;;18.40;60.70;;;;;;5039641;28;45349;-71
2023/04/30 07:15:34;;;;;;;2.70;2.03;;;18.40;60.70;;;;;;5036737;28;45341;-71
2023/04/30 07:18:02;;;;;;;2.20;1.90;;;18.40;60.70;;;;;;5038347;28;45411;-71
2023/04/30 07:20:29;;;;;;;2.83;2.03;;;18.40;60.70;;;;;;5039684;28;47158;-71
2023/04/30 07:22:56;;;;;;;4.32;2.25;;;18.40;60.70;;;;;;5039683;28;45290;-71
2023/04/30 07:25:24;;;;;;;2.00;1.70;;;18.50;60.80;;;;;;5038562;28;45540;-71
2023/04/30 07:27:51;;;;;;;2.30;1.48;;;18.40;60.70;;;;;;5039569;28;45706;-71
2023/04/30 07:30:18;;;;;;;3.35;1.77;;;18.50;60.80;;;;;;5039457;28;47648;-71
2023/04/30 07:32:45;;;;;;;2.63;1.63;;;18.50;60.90;;;;;;5035878;28;45479;-71
2023/04/30 07:35:12;;;;;;;3.08;1.70;;;18.50;60.90;;;;;;5030844;27;45379;-71
2023/04/30 07:37:39;;;;;;;3.70;1.80;;;18.50;60.80;;;;;;5039576;28;45352;-71
2023/04/30 07:40:11;;;;;;;3.85;1.73;;;18.50;60.90;;;;;;5039128;28;47659;-71
2023/04/30 07:42:39;;;;;;;2.67;1.77;;;18.50;60.70;;;;;;5039136;28;46188;-71
2023/04/30 07:45:07;;;;;;;3.17;1.75;;;18.50;60.70;;;;;;5037812;28;45459;-72
2023/04/30 07:47:34;;;;;;;2.97;1.80;;;18.50;60.70;;;;;;5039486;28;45304;-71
2023/04/30 07:50:02;;;;;;;3.15;1.98;;;18.50;60.70;;;;;;5034785;28;48694;-71
2023/04/30 07:52:29;;;;;;;2.30;1.80;;;18.50;60.70;;;;;;5034710;28;45375;-71
2023/04/30 07:54:55;;;;;;;2.33;1.85;;;18.50;60.70;;;;;;5038753;28;45301;-70
2023/04/30 07:57:22;;;;;;;2.35;1.58;;;18.50;60.80;;;;;;5039696;28;45566;-69
2023/04/30 07:59:50;;;;;;;3.28;1.70;;;18.50;60.80;;;;;;5038539;28;47453;-71
2023/04/30 08:02:17;;;;;;;2.50;1.80;;;18.50;60.70;;;;;;5031716;28;45335;-70
2023/04/30 08:04:44;;;;;;;2.78;1.80;;;18.50;60.60;;;;;;5038859;27;45344;-71
2023/04/30 08:07:11;;;;;;;2.92;1.90;;;18.50;60.70;;;;;;5035154;28;45451;-71
2023/04/30 08:09:38;;;;;;;3.80;2.13;;;18.50;60.80;;;;;;5039173;28;48592;-71
2023/04/30 08:12:05;;;;;;;2.10;1.42;;;18.50;60.80;;;;;;5038402;28;45438;-71
2023/04/30 08:14:32;;;;;;;2.53;1.77;;;18.50;60.90;;;;;;5038626;28;45396;-71
2023/04/30 08:17:01;;;;;;;2.50;1.70;;;18.50;60.90;;;;;;5039216;28;45401;-71
2023/04/30 08:19:28;;;;;;;3.58;1.88;;;18.50;61.00;;;;;;5038773;28;46571;-70
2023/04/30 08:21:55;;;;;;;1.95;1.50;;;18.50;60.90;;;;;;5038623;27;45307;-71
2023/04/30 08:24:22;;;;;;;2.45;1.65;;;18.50;60.90;;;;;;5034069;28;45377;-70
2023/04/30 08:26:48;;;;;;;1.92;1.60;;;18.50;60.80;;;;;;5038743;28;45487;-71
2023/04/30 08:29:15;;;;;;;2.00;1.52;;;18.50;60.80;;;;;;5038398;28;48298;-70
2023/04/30 08:31:42;;;;;;;2.38;1.50;;;18.50;60.70;;;;;;5038527;27;45280;-71
2023/04/30 08:34:10;;;;;;;2.65;1.42;;;18.50;60.80;;;;;;5038214;28;45434;-72
2023/04/30 08:36:37;;;;;;;2.20;1.70;;;18.50;60.80;;;;;;5040119;27;45301;-70
2023/04/30 08:39:04;;;;;;;3.40;1.90;;;18.50;60.80;;;;;;5041527;28;46364;-71
2023/04/30 08:41:33;;;;;;;2.13;1.65;;;18.60;60.80;;;;;;5037876;27;45292;-70
2023/04/30 08:44:02;;;;;;;1.55;1.40;;;18.50;60.80;;;;;;5041625;28;45334;-71
2023/04/30 08:46:32;;;;;;;1.88;1.48;;;18.50;60.80;;;;;;5040477;28;45358;-71
2023/04/30 08:48:59;;;;;;;2.70;1.30;;;18.50;60.90;;;;;;5041577;28;48098;-70
2023/04/30 08:51:27;;;;;;;2.17;1.40;;;18.50;60.80;;;;;;5041273;28;45720;-70
2023/04/30 08:53:56;;;;;;;1.67;1.38;;;18.50;60.90;;;;;;5041117;28;45609;-71
2023/04/30 08:56:23;;;;;;;1.25;1.02;;;18.50;61.00;;;;;;5041537;28;45351;-71
2023/04/30 08:58:50;;;;;;;2.55;1.42;;;18.50;61.00;;;;;;5040754;28;46288;-71
2023/04/30 09:01:17;;;;;;;1.40;1.30;;;18.60;61.00;;;;;;5033100;28;45289;-70
2023/04/30 09:03:44;;;;;;;1.67;1.15;;;18.60;60.90;;;;;;5041607;28;45585;-71
2023/04/30 09:06:15;;;;;;;1.65;1.30;;;18.60;60.90;;;;;;5033138;28;45451;-71
2023/04/30 09:08:45;;;;;;;1.60;1.17;;;18.60;61.00;;;;;;5041625;28;47083;-71
2023/04/30 09:11:26;;;;;;;3.25;1.15;;;18.60;61.00;;;;;;5033268;28;45333;-71
2023/04/30 09:13:54;;;;;;;1.60;1.10;;;18.60;60.80;;;;;;5040848;28;45459;-71
2023/04/30 09:16:22;;;;;;;2.22;1.00;;;18.60;60.80;;;;;;5040231;28;45379;-71
2023/04/30 09:18:49;;;;;;;1.50;1.17;;;18.60;60.70;;;;;;5041355;28;46337;-71
2023/04/30 09:21:16;;;;;;;1.27;0.90;;;18.60;60.70;;;;;;5041477;28;45359;-71
2023/04/30 09:23:57;;;;;;;1.00;0.90;;;18.60;60.70;;;;;;5040964;28;45311;-70
2023/04/30 09:26:27;;;;;;;1.38;1.10;;;18.60;60.70;;;;;;5040644;28;45441;-70
2023/04/30 09:28:56;;;;;;;1.08;0.98;;;18.60;60.80;;;;;;5041167;27;46362;-72
2023/04/30 09:31:24;;;;;;;1.27;1.00;;;18.60;60.80;;;;;;5040780;27;45369;-70
2023/04/30 09:33:52;;;;;;;1.10;1.00;;;18.60;60.70;;;;;;5041268;28;45418;-70
2023/04/30 09:36:19;;;;;;;1.00;0.90;;;18.60;60.80;;;;;;5038940;28;45192;-70
2023/04/30 09:38:46;;;;;;;1.42;1.08;;;18.60;60.80;;;;;;5037709;28;47133;-72
2023/04/30 09:41:25;;;;;;;1.17;1.02;;;18.60;60.90;;;;;;5040982;28;45314;-71
2023/04/30 09:43:51;;;;;;;1.70;0.90;;;18.60;61.00;;;;;;5041067;28;45233;-71
2023/04/30 09:46:20;;;;;;;1.00;0.75;;;18.60;60.90;;;;;;5039484;28;45572;-71
2023/04/30 09:48:48;;;;;;;0.85;0.85;;;18.60;61.00;;;;;;5037256;27;45466;-71
2023/04/30 09:51:15;;;;;;;1.88;0.88;;;18.60;60.80;;;;;;5035597;28;45265;-71
2023/04/30 09:53:43;;;;;;;1.92;0.80;;;18.60;60.70;;;;;;5040808;28;45385;-71
2023/04/30 09:56:12;;;;;;;1.58;0.98;;;18.60;60.70;;;;;;5040699;28;45349;-71
2023/04/30 09:58:44;;;;;;;1.65;0.80;;;18.60;60.60;;;;;;5040656;28;48459;-71
2023/04/30 10:01:11;;;;;;;1.27;0.98;;;18.60;60.50;;;;;;5032440;28;45285;-71
2023/04/30 10:03:41;;;;;;;0.93;0.85;;;18.60;60.50;;;;;;5040334;28;45370;-70
2023/04/30 10:06:08;;;;;;;0.98;0.70;;;18.60;60.20;;;;;;5036340;28;45663;-71
2023/04/30 10:08:40;;;;;;;0.88;0.73;;;18.60;60.20;;;;;;5040385;27;45496;-71
2023/04/30 10:11:08;;;;;;;1.27;0.95;;;18.60;60.20;;;;;;5040506;28;45271;-71
2023/04/30 10:13:41;;;;;;;1.27;0.68;;;18.60;60.30;;;;;;5040463;27;45296;-71
2023/04/30 10:16:17;;;;;;;0.82;0.77;;;18.60;60.30;;;;;;5040286;28;45410;-72
2023/04/30 10:18:48;;;;;;;1.00;0.70;;;18.60;60.20;;;;;;5040899;28;46370;-70
2023/04/30 10:21:18;;;;;;;1.63;0.70;;;18.60;60.40;;;;;;5032749;28;45654;-70
2023/04/30 10:23:45;;;;;;;0.65;0.65;;;18.60;60.60;;;;;;5036214;28;45376;-71
2023/04/30 10:26:12;;;;;;;0.85;0.75;;;18.60;60.60;;;;;;5040061;27;45437;-70
2023/04/30 10:28:40;;;;;;;0.88;0.70;;;18.60;60.60;;;;;;5040038;28;47567;-71
2023/04/30 10:31:09;;;;;;;1.17;0.80;;;18.60;60.60;;;;;;5040403;28;45262;-68
2023/04/30 10:33:48;;;;;;;0.65;0.63;;;18.60;60.50;;;;;;5040305;28;45396;-71
2023/04/30 10:36:23;;;;;;;0.95;0.80;;;18.60;60.50;;;;;;5040136;27;45725;-71
2023/04/30 10:38:51;;;;;;;0.40;0.40;;;18.70;60.70;;;;;;5037102;28;46158;-70
2023/04/30 10:41:20;;;;;;;1.80;0.73;;;18.60;60.30;;;;;;5039320;28;45319;-70
2023/04/30 10:43:48;;;;;;;0.50;0.50;;;18.70;60.30;;;;;;5040228;27;45425;-71
2023/04/30 10:46:22;;;;;;;0.50;0.50;;;18.60;60.10;;;;;;5038899;28;45543;-71
2023/04/30 10:48:49;;;;;;;2.03;0.80;;;18.70;60.10;;;;;;5032836;28;46592;-71
2023/04/30 10:51:17;;;;;;;1.75;0.60;;;18.60;60.00;;;;;;5040198;28;45304;-71
2023/04/30 10:53:44;;;;;;;0.68;0.60;;;18.70;60.10;;;;;;5039909;28;45317;-71
2023/04/30 10:56:12;;;;;;;0.60;0.55;;;18.60;60.10;;;;;;5039927;28;45341;-72
2023/04/30 10:58:40;;;;;;;1.02;0.70;;;18.60;60.10;;;;;;5034838;28;46237;-71
2023/04/30 11:01:11;;;;;;;0.82;0.70;;;18.60;60.00;;;;;;5031409;28;45643;-70
2023/04/30 11:03:41;;;;;;;0.68;0.60;;;18.60;60.00;;;;;;5039682;28;45313;-71
2023/04/30 11:06:12;;;;;;;0.73;0.60;;;18.70;60.20;;;;;;5039788;28;45273;-71
2023/04/30 11:08:42;;;;;;;1.25;0.70;;;18.70;60.30;;;;;;5039832;28;46423;-71
2023/04/30 11:11:10;;;;;;;0.70;0.55;;;18.70;60.40;;;;;;5039805;28;46386;-71
2023/04/30 11:13:42;;;;;;;0.50;0.43;;;18.70;60.50;;;;;;5036542;28;45325;-71
2023/04/30 11:16:10;;;;;;;0.30;0.30;;;18.70;60.60;;;;;;5039276;28;45304;-71
2023/04/30 11:18:43;;;;;;;0.50;0.45;;;18.70;60.50;;;;;;5039776;28;47978;-71
2023/04/30 11:21:10;;;;;;;0.52;0.50;;;18.70;60.60;;;;;;5039778;28;45286;-71
2023/04/30 11:23:40;;;;;;;0.77;0.45;;;18.70;60.50;;;;;;5040026;28;45585;-70
2023/04/30 11:26:07;;;;;;;0.55;0.55;;;18.70;60.40;;;;;;5039676;28;45289;-71
2023/04/30 11:28:36;;;;;;;1.17;0.55;;;18.70;60.20;;;;;;5039278;28;45667;-70
2023/04/30 11:31:03;;;;;;;1.00;0.50;;;18.70;60.30;;;;;;5035746;28;45399;-71
2023/04/30 11:33:34;;;;;;;0.68;0.57;;;18.70;60.10;;;;;;5039454;28;45436;-70
2023/04/30 11:36:02;;;;;;;0.70;0.50;;;18.70;60.10;;;;;;5039660;28;45269;-72
2023/04/30 11:38:31;;;;;;;0.50;0.50;;;18.70;60.20;;;;;;5039449;27;46298;-71
2023/04/30 11:40:59;;;;;;;0.60;0.60;;;18.70;60.10;;;;;;5039136;28;45381;-71
2023/04/30 11:43:27;;;;;;;0.98;0.60;;;18.70;60.30;;;;;;5039225;28;45275;-71
2023/04/30 11:46:08;;;;;;;0.85;0.63;;;18.70;60.10;;;;;;5038252;28;45544;-71
2023/04/30 11:48:37;;;;;;;0.60;0.55;;;18.70;60.00;;;;;;5031987;28;45353;-71
2023/04/30 11:51:06;;;;;;;0.50;0.50;;;18.70;60.20;;;;;;5037496;28;45425;-71
2023/04/30 11:53:33;;;;;;;0.63;0.45;;;18.70;60.10;;;;;;5039363;28;45570;-72
2023/04/30 11:56:03;;;;;;;0.63;0.40;;;18.70;60.10;;;;;;5039476;28;45209;-70
2023/04/30 11:58:34;;;;;;;0.40;0.40;;;18.70;60.30;;;;;;5039459;28;47865;-71
2023/04/30 12:01:01;;;;;;;1.00;0.50;;;18.70;60.30;;;;;;5030920;28;45370;-71
2023/04/30 12:03:29;;;;;;;0.40;0.40;;;18.70;60.10;;;;;;5039450;28;45414;-72
2023/04/30 12:05:58;;;;;;;0.65;0.50;;;18.70;60.30;;;;;;5035033;27;45264;-71
2023/04/30 12:08:25;;;;;;;0.50;0.50;;;18.70;60.10;;;;;;5039072;27;45327;-71
2023/04/30 12:10:52;;;;;;;0.57;0.50;;;18.70;60.10;;;;;;5040998;28;45287;-71
2023/04/30 12:13:19;;;;;;;0.50;0.40;;;18.70;60.00;;;;;;5041937;28;45327;-71
2023/04/30 12:15:59;;;;;;;0.40;0.40;;;18.70;60.10;;;;;;5042038;28;45575;-70
2023/04/30 12:18:26;;;;;;;0.45;0.45;;;18.70;60.00;;;;;;5042023;28;47303;-70
2023/04/30 12:20:53;;;;;;;0.40;0.40;;;18.70;60.00;;;;;;5042269;28;45359;-71
2023/04/30 12:23:21;;;;;;;0.60;0.50;;;18.70;60.00;;;;;;5037844;28;45317;-71
2023/04/30 12:25:48;;;;;;;0.45;0.43;;;18.70;60.00;;;;;;5041493;28;45459;-71
2023/04/30 12:28:15;;;;;;;0.50;0.50;;;18.70;60.10;;;;;;5041882;28;45394;-71
2023/04/30 12:30:43;;;;;;;0.40;0.30;;;18.70;60.00;;;;;;5041533;28;45284;-71
2023/04/30 12:33:11;;;;;;;0.30;0.30;;;18.70;60.00;;;;;;5042362;28;45415;-71
2023/04/30 12:35:42;;;;;;;0.52;0.43;;;18.70;60.10;;;;;;5041599;28;45423;-71
2023/04/30 12:38:09;;;;;;;0.40;0.40;;;18.70;60.10;;;;;;5041738;28;48232;-70
2023/04/30 12:40:37;;;;;;;0.55;0.55;;;18.70;60.10;;;;;;5033462;28;45738;-71
2023/04/30 12:43:05;;;;;;;0.50;0.50;;;18.70;60.10;;;;;;5041809;28;45381;-71
2023/04/30 12:45:46;;;;;;;0.43;0.43;;;18.70;60.10;;;;;;5040424;28;45271;-72
2023/04/30 12:48:15;;;;;;;0.50;0.38;;;18.70;60.10;;;;;;5038990;28;48698;-71
2023/04/30 12:50:42;;;;;;;2.05;0.40;;;18.70;60.10;;;;;;5041550;28;45301;-71
2023/04/30 12:53:09;;;;;;;0.65;0.50;;;18.80;60.20;;;;;;5041571;28;45276;-71